createdAt,value
2023-03-15T00:01:33.375Z,95368.66
2023-03-15T00:04:00.553Z,95379.50
2023-03-15T00:06:29.147Z,95378.69
2023-03-15T00:08:56.281Z,95380.13
2023-03-15T00:11:23.441Z,95390.56
2023-03-15T00:13:50.608Z,95399.59
2023-03-15T00:16:17.928Z,95402.63
2023-03-15T00:18:45.400Z,95406.03
2023-03-15T00:21:12.600Z,95412.66
2023-03-15T00:23:41.345Z,95415.06
2023-03-15T00:26:08.659Z,95428.56
2023-03-15T00:28:35.821Z,95421.81
2023-03-15T00:31:05.323Z,95418.22
2023-03-15T00:33:32.762Z,95428.41
2023-03-15T00:35:59.930Z,95433.56
2023-03-15T00:38:27.105Z,95431.22
2023-03-15T00:40:55.782Z,95426.00
2023-03-15T00:43:22.861Z,95432.00
2023-03-15T00:45:50.001Z,95430.00
2023-03-15T00:48:17.162Z,95432.63
2023-03-15T00:50:44.233Z,95439.06
2023-03-15T00:53:11.362Z,95446.28
2023-03-15T00:55:38.493Z,95447.09
2023-03-15T00:58:07.123Z,95453.34
2023-03-15T01:00:35.281Z,95457.50
2023-03-15T01:03:02.403Z,95460.16
2023-03-15T01:05:29.626Z,95458.19
2023-03-15T01:07:56.781Z,95461.59
2023-03-15T01:10:24.025Z,95468.44
2023-03-15T01:12:51.104Z,95477.03
2023-03-15T01:15:20.036Z,95477.97
2023-03-15T01:17:47.299Z,95475.59
2023-03-15T01:20:16.089Z,95480.81
2023-03-15T01:22:43.340Z,95474.53
2023-03-15T01:25:11.092Z,95473.91
2023-03-15T01:27:38.244Z,95481.16
2023-03-15T01:30:07.135Z,95478.69
2023-03-15T01:32:35.830Z,95474.31
2023-03-15T01:35:02.983Z,95473.41
2023-03-15T01:37:30.160Z,95477.47
2023-03-15T01:39:57.282Z,95482.00
2023-03-15T01:42:24.370Z,95477.25
2023-03-15T01:44:55.294Z,95480.97
2023-03-15T01:47:23.821Z,95470.78
2023-03-15T01:49:59.221Z,95464.66
2023-03-15T01:52:33.024Z,95472.41
2023-03-15T01:55:07.852Z,95463.19
2023-03-15T01:57:40.360Z,95464.66
2023-03-15T02:00:10.641Z,95462.47
2023-03-15T02:02:42.236Z,95456.38
2023-03-15T02:05:15.524Z,95458.50
2023-03-15T02:07:45.761Z,95445.69
2023-03-15T02:10:18.780Z,95441.69
2023-03-15T02:12:50.646Z,95438.75
2023-03-15T02:15:18.620Z,95441.47
2023-03-15T02:17:48.661Z,95440.53
2023-03-15T02:20:33.101Z,95442.00
2023-03-15T02:23:03.843Z,95445.81
2023-03-15T02:25:43.665Z,95442.50
2023-03-15T02:28:16.478Z,95444.41
2023-03-15T02:30:44.262Z,95438.19
2023-03-15T02:33:18.944Z,95443.53
2023-03-15T02:35:46.141Z,95442.06
2023-03-15T02:38:13.696Z,95444.59
2023-03-15T02:40:41.362Z,95439.47
2023-03-15T02:43:17.665Z,95440.78
2023-03-15T02:45:47.280Z,95434.78
2023-03-15T02:48:14.963Z,95441.75
2023-03-15T02:50:42.064Z,95451.16
2023-03-15T02:53:09.324Z,95452.50
2023-03-15T02:55:36.385Z,95451.97
2023-03-15T02:58:03.855Z,95461.66
2023-03-15T03:00:32.554Z,95465.88
2023-03-15T03:02:59.671Z,95463.41
2023-03-15T03:05:27.366Z,95471.00
2023-03-15T03:07:54.569Z,95463.56
2023-03-15T03:10:22.676Z,95471.88
2023-03-15T03:12:49.846Z,95472.81
2023-03-15T03:15:16.966Z,95474.38
2023-03-15T03:17:45.531Z,95473.94
2023-03-15T03:20:14.367Z,95474.50
2023-03-15T03:22:43.048Z,95475.81
2023-03-15T03:25:11.137Z,95481.06
2023-03-15T03:27:38.983Z,95478.59
2023-03-15T03:30:10.373Z,95479.41
2023-03-15T03:32:37.562Z,95489.81
2023-03-15T03:35:07.140Z,95493.91
2023-03-15T03:37:34.301Z,95488.44
2023-03-15T03:40:01.503Z,95487.88
2023-03-15T03:42:28.539Z,95488.06
2023-03-15T03:44:55.585Z,95496.94
2023-03-15T03:47:22.759Z,95497.31
2023-03-15T03:49:49.864Z,95504.94
2023-03-15T03:52:18.420Z,95502.69
2023-03-15T03:54:45.478Z,95502.50
2023-03-15T03:57:12.568Z,95509.53
2023-03-15T03:59:39.667Z,95511.41
2023-03-15T04:02:06.962Z,95508.78
2023-03-15T04:04:34.338Z,95511.22
2023-03-15T04:07:01.521Z,95517.47
2023-03-15T04:09:30.180Z,95521.53
2023-03-15T04:11:57.281Z,95514.44
2023-03-15T04:14:24.958Z,95511.78
2023-03-15T04:16:52.061Z,95516.31
2023-03-15T04:19:19.223Z,95511.06
2023-03-15T04:21:46.319Z,95509.03
2023-03-15T04:24:13.999Z,95511.69
2023-03-15T04:26:42.638Z,95506.84
2023-03-15T04:29:10.802Z,95511.53
2023-03-15T04:31:38.282Z,95511.91
2023-03-15T04:34:06.086Z,95514.38
2023-03-15T04:36:33.165Z,95508.34
2023-03-15T04:39:00.311Z,95518.81
2023-03-15T04:41:27.386Z,95518.56
2023-03-15T04:43:55.992Z,95515.75
2023-03-15T04:46:24.876Z,95515.94
2023-03-15T04:48:52.169Z,95516.94
2023-03-15T04:51:19.411Z,95516.56
2023-03-15T04:53:46.490Z,95519.25
2023-03-15T04:56:13.777Z,95519.03
2023-03-15T04:58:40.979Z,95519.03
2023-03-15T05:01:10.041Z,95528.88
2023-03-15T05:03:37.250Z,95530.91
2023-03-15T05:06:04.728Z,95528.34
2023-03-15T05:08:31.952Z,95543.88
2023-03-15T05:10:59.208Z,95541.22
2023-03-15T05:13:26.409Z,95547.09
2023-03-15T05:15:53.746Z,95547.09
2023-03-15T05:18:22.649Z,95551.00
2023-03-15T05:20:49.852Z,95561.13
2023-03-15T05:23:17.207Z,95563.75
2023-03-15T05:25:44.488Z,95564.16
2023-03-15T05:28:11.627Z,95566.78
2023-03-15T05:30:38.700Z,95570.59
2023-03-15T05:33:05.828Z,95572.63
2023-03-15T05:35:34.587Z,95571.66
2023-03-15T05:38:01.727Z,95580.72
2023-03-15T05:40:28.988Z,95582.19
2023-03-15T05:42:56.595Z,95591.72
2023-03-15T05:45:24.204Z,95586.84
2023-03-15T05:47:51.335Z,95592.09
2023-03-15T05:50:18.654Z,95591.06
2023-03-15T05:52:47.285Z,95590.06
2023-03-15T05:55:14.550Z,95593.13
2023-03-15T05:57:41.771Z,95591.09
2023-03-15T06:00:11.456Z,95601.38
2023-03-15T06:02:38.618Z,95598.38
2023-03-15T06:05:06.852Z,95599.19
2023-03-15T06:07:33.953Z,95590.09
2023-03-15T06:10:02.715Z,95599.78
2023-03-15T06:12:29.897Z,95602.59
2023-03-15T06:14:57.272Z,95593.94
2023-03-15T06:17:24.851Z,95601.00
2023-03-15T06:19:52.008Z,95594.53
2023-03-15T06:22:19.171Z,95597.97
2023-03-15T06:24:46.415Z,95604.22
2023-03-15T06:27:15.051Z,95606.22
2023-03-15T06:29:42.392Z,95604.81
2023-03-15T06:32:10.026Z,95616.53
2023-03-15T06:34:37.315Z,95623.97
2023-03-15T06:37:04.533Z,95623.09
2023-03-15T06:39:31.722Z,95627.88
2023-03-15T06:41:58.881Z,95620.53
2023-03-15T06:44:27.524Z,95621.50
2023-03-15T06:46:54.666Z,95621.22
2023-03-15T06:49:21.797Z,95626.41
2023-03-15T06:51:48.901Z,95640.00
2023-03-15T06:54:16.061Z,95639.88
2023-03-15T06:56:43.263Z,95635.41
2023-03-15T06:59:10.369Z,95644.63
2023-03-15T07:01:38.967Z,95641.16
2023-03-15T07:04:08.339Z,95641.16
2023-03-15T07:06:36.320Z,95644.94
2023-03-15T07:09:05.906Z,95651.97
2023-03-15T07:11:33.372Z,95648.03
2023-03-15T07:14:00.584Z,95651.94
2023-03-15T07:16:27.772Z,95655.06
2023-03-15T07:18:56.503Z,95652.88
2023-03-15T07:21:23.666Z,95657.53
2023-03-15T07:23:50.787Z,95660.19
2023-03-15T07:26:18.129Z,95656.16
2023-03-15T07:28:45.631Z,95669.00
2023-03-15T07:31:12.954Z,95665.81
2023-03-15T07:33:40.176Z,95669.34
2023-03-15T07:36:09.326Z,95671.63
2023-03-15T07:38:36.914Z,95667.72
2023-03-15T07:41:06.284Z,95671.94
2023-03-15T07:43:34.433Z,95676.47
2023-03-15T07:46:01.833Z,95674.56
2023-03-15T07:48:29.322Z,95678.09
2023-03-15T07:50:56.981Z,95669.94
2023-03-15T07:53:26.014Z,95677.03
2023-03-15T07:55:53.449Z,95686.03
2023-03-15T07:58:20.711Z,95682.31
2023-03-15T08:00:48.270Z,95683.75
2023-03-15T08:03:15.726Z,95693.56
2023-03-15T08:05:42.933Z,95693.00
2023-03-15T08:08:10.156Z,95692.78
2023-03-15T08:10:38.878Z,95690.81
2023-03-15T08:13:06.229Z,95688.75
2023-03-15T08:15:33.534Z,95693.09
2023-03-15T08:18:00.896Z,95689.50
2023-03-15T08:20:29.822Z,95679.88
2023-03-15T08:22:57.534Z,95685.09
2023-03-15T08:25:26.120Z,95697.16
2023-03-15T08:27:54.751Z,95692.13
2023-03-15T08:30:22.471Z,95692.19
2023-03-15T08:32:51.029Z,95688.22
2023-03-15T08:35:20.349Z,95688.88
2023-03-15T08:37:48.095Z,95683.44
2023-03-15T08:40:17.230Z,95684.31
2023-03-15T08:42:44.471Z,95685.34
2023-03-15T08:45:13.097Z,95683.88
2023-03-15T08:47:40.413Z,95690.13
2023-03-15T08:50:11.615Z,95687.94
2023-03-15T08:52:39.409Z,95693.16
2023-03-15T08:55:07.942Z,95695.69
2023-03-15T08:57:35.394Z,95687.41
2023-03-15T09:00:05.024Z,95691.66
2023-03-15T09:02:34.732Z,95697.22
2023-03-15T09:05:02.079Z,95688.78
2023-03-15T09:07:29.337Z,95695.91
2023-03-15T09:09:56.490Z,95685.16
2023-03-15T09:12:23.625Z,95681.97
2023-03-15T09:14:50.898Z,95696.75
2023-03-15T09:17:18.084Z,95699.75
2023-03-15T09:19:46.690Z,95696.94
2023-03-15T09:22:17.141Z,95709.78
2023-03-15T09:24:51.734Z,95698.94
2023-03-15T09:27:19.327Z,95696.75
2023-03-15T09:29:46.575Z,95703.56
2023-03-15T09:32:14.006Z,95708.16
2023-03-15T09:34:42.254Z,95708.41
2023-03-15T09:37:11.249Z,95707.38
2023-03-15T09:39:38.392Z,95711.66
2023-03-15T09:42:17.267Z,95717.84
2023-03-15T09:44:47.967Z,95714.00
2023-03-15T09:47:32.488Z,95711.72
2023-03-15T09:50:07.819Z,95710.34
2023-03-15T09:52:43.318Z,95715.50
2023-03-15T09:55:17.429Z,95705.59
2023-03-15T09:57:50.801Z,95714.25
2023-03-15T10:00:24.013Z,95707.03
2023-03-15T10:03:00.170Z,95708.88
2023-03-15T10:05:37.871Z,95702.19
2023-03-15T10:08:11.912Z,95701.72
2023-03-15T10:10:49.631Z,95703.66
2023-03-15T10:13:33.147Z,95718.75
2023-03-15T10:16:23.045Z,95710.09
2023-03-15T10:19:05.512Z,95708.56
2023-03-15T10:21:48.296Z,95716.19
2023-03-15T10:24:23.136Z,95714.50
2023-03-15T10:26:53.798Z,95721.09
2023-03-15T10:29:24.613Z,95719.34
2023-03-15T10:31:55.134Z,95718.75
2023-03-15T10:34:24.238Z,95715.28
2023-03-15T10:36:52.127Z,95721.00
2023-03-15T10:39:22.412Z,95721.97
2023-03-15T10:41:51.389Z,95712.72
2023-03-15T10:44:21.695Z,95709.22
2023-03-15T10:47:06.986Z,95711.28
2023-03-15T10:49:38.645Z,95709.28
2023-03-15T10:52:06.167Z,95712.88
2023-03-15T10:54:36.129Z,95700.03
2023-03-15T10:57:06.789Z,95699.28
2023-03-15T10:59:36.112Z,95702.06
2023-03-15T11:02:22.605Z,95704.34
2023-03-15T11:04:59.845Z,95701.94
2023-03-15T11:07:27.031Z,95697.53
2023-03-15T11:10:01.082Z,95697.16
2023-03-15T11:12:29.926Z,95695.78
2023-03-15T11:15:00.749Z,95693.56
2023-03-15T11:17:30.857Z,95685.75
2023-03-15T11:20:00.989Z,95691.16
2023-03-15T11:22:28.190Z,95697.13
2023-03-15T11:24:57.252Z,95692.81
2023-03-15T11:27:26.888Z,95693.78
2023-03-15T11:29:57.864Z,95689.72
2023-03-15T11:32:29.027Z,95680.09
2023-03-15T11:35:02.606Z,95685.00
2023-03-15T11:37:38.391Z,95683.16
2023-03-15T11:40:18.163Z,95672.50
2023-03-15T11:42:54.830Z,95670.59
2023-03-15T11:45:34.401Z,95671.53
2023-03-15T11:48:11.450Z,95661.72
2023-03-15T11:50:40.238Z,95669.22
2023-03-15T11:53:11.293Z,95665.81
2023-03-15T11:55:40.093Z,95666.91
2023-03-15T11:58:29.536Z,95668.56
2023-03-15T12:01:01.872Z,95678.34
2023-03-15T12:03:33.890Z,95666.56
2023-03-15T12:06:11.341Z,95662.84
2023-03-15T12:08:45.732Z,95667.69
2023-03-15T12:11:40.086Z,95658.88
2023-03-15T12:14:26.014Z,95654.28
2023-03-15T12:17:46.160Z,95644.28
2023-03-15T12:20:20.727Z,95641.09
2023-03-15T12:22:53.289Z,95634.41
2023-03-15T12:25:29.567Z,95634.78
2023-03-15T12:27:59.888Z,95631.53
2023-03-15T12:30:34.025Z,95638.84
2023-03-15T12:33:03.611Z,95625.59
2023-03-15T12:35:39.955Z,95624.41
2023-03-15T12:38:16.226Z,95631.47
2023-03-15T12:40:53.323Z,95623.66
2023-03-15T12:43:40.188Z,95617.81
2023-03-15T12:46:08.285Z,95624.03
2023-03-15T12:48:35.541Z,95628.78
2023-03-15T12:51:06.164Z,95615.91
2023-03-15T12:53:54.182Z,95618.19
2023-03-15T12:56:56.182Z,95612.25
2023-03-15T12:59:32.644Z,95610.44
2023-03-15T13:02:02.791Z,95610.47
2023-03-15T13:04:31.661Z,95604.72
2023-03-15T13:07:18.114Z,95596.97
2023-03-15T13:10:21.952Z,95598.91
2023-03-15T13:12:57.663Z,95594.19
2023-03-15T13:15:34.686Z,95594.88
2023-03-15T13:18:15.114Z,95590.25
2023-03-15T13:20:48.567Z,95598.34
2023-03-15T13:23:27.103Z,95600.19
2023-03-15T13:26:13.941Z,95594.47
2023-03-15T13:28:48.564Z,95588.03
2023-03-15T13:31:23.812Z,95596.78
2023-03-15T13:33:53.707Z,95601.03
2023-03-15T13:36:20.864Z,95594.13
2023-03-15T13:38:50.532Z,95604.44
2023-03-15T13:41:22.000Z,95603.56
2023-03-15T13:43:51.125Z,95599.97
2023-03-15T13:46:22.675Z,95600.41
2023-03-15T13:48:51.584Z,95597.56
2023-03-15T13:51:22.780Z,95602.00
2023-03-15T13:53:52.845Z,95591.16
2023-03-15T13:56:32.640Z,95593.75
2023-03-15T13:59:06.685Z,95589.63
2023-03-15T14:01:40.411Z,95582.97
2023-03-15T14:04:14.691Z,95586.88
2023-03-15T14:06:42.696Z,95580.34
2023-03-15T14:09:16.946Z,95585.16
2023-03-15T14:11:44.245Z,95577.03
2023-03-15T14:14:22.843Z,95574.06
2023-03-15T14:17:04.757Z,95578.75
2023-03-15T14:19:35.574Z,95582.38
2023-03-15T14:22:13.004Z,95582.13
2023-03-15T14:24:43.482Z,95584.28
2023-03-15T14:27:17.974Z,95583.69
2023-03-15T14:29:50.323Z,95586.03
2023-03-15T14:32:29.443Z,95587.22
2023-03-15T14:35:05.970Z,95585.81
2023-03-15T14:37:38.637Z,95595.28
2023-03-15T14:40:18.562Z,95595.34
2023-03-15T14:42:45.921Z,95597.94
2023-03-15T14:45:13.867Z,95592.59
2023-03-15T14:47:56.062Z,95587.28
2023-03-15T14:50:26.488Z,95591.53
2023-03-15T14:52:54.540Z,95588.25
2023-03-15T14:55:25.037Z,95584.00
2023-03-15T14:57:52.147Z,95585.19
2023-03-15T15:00:20.680Z,95590.34
2023-03-15T15:02:54.141Z,95582.97
2023-03-15T15:05:25.748Z,95582.19
2023-03-15T15:08:01.889Z,95591.25
2023-03-15T15:10:30.575Z,95600.28
2023-03-15T15:13:06.098Z,95597.00
2023-03-15T15:15:47.412Z,95593.44
2023-03-15T15:18:23.574Z,95592.81
2023-03-15T15:20:51.114Z,95598.09
2023-03-15T15:23:21.348Z,95599.84
2023-03-15T15:25:51.894Z,95613.47
2023-03-15T15:28:33.347Z,95622.44
2023-03-15T15:31:02.435Z,95611.72
2023-03-15T15:33:31.208Z,95605.63
2023-03-15T15:35:58.915Z,95605.72
2023-03-15T15:38:31.406Z,95608.22
2023-03-15T15:40:58.568Z,95597.97
2023-03-15T15:43:25.808Z,95600.28
2023-03-15T15:45:52.936Z,95599.06
2023-03-15T15:48:20.234Z,95593.91
2023-03-15T15:50:49.048Z,95587.94
2023-03-15T15:53:18.428Z,95593.19
2023-03-15T15:55:46.199Z,95589.84
2023-03-15T15:58:14.577Z,95589.97
2023-03-15T16:00:41.724Z,95586.53
2023-03-15T16:03:13.649Z,95583.47
2023-03-15T16:05:41.653Z,95589.00
2023-03-15T16:08:21.621Z,95593.50
2023-03-15T16:10:49.182Z,95591.97
2023-03-15T16:13:16.889Z,95591.53
2023-03-15T16:15:44.148Z,95591.50
2023-03-15T16:18:12.728Z,95596.56
2023-03-15T16:20:41.804Z,95596.56
2023-03-15T16:23:19.064Z,95601.28
2023-03-15T16:25:50.241Z,95603.97
2023-03-15T16:28:17.728Z,95603.56
2023-03-15T16:30:46.891Z,95605.53
2023-03-15T16:33:19.225Z,95612.31
2023-03-15T16:35:48.096Z,95609.34
2023-03-15T16:38:19.333Z,95611.31
2023-03-15T16:40:46.731Z,95603.03
2023-03-15T16:43:14.877Z,95610.00
2023-03-15T16:45:42.262Z,95613.75
2023-03-15T16:48:09.763Z,95624.75
2023-03-15T16:50:37.128Z,95619.94
2023-03-15T16:53:09.365Z,95618.91
2023-03-15T16:55:38.843Z,95616.47
2023-03-15T16:58:17.382Z,95619.13
2023-03-15T17:00:44.883Z,95624.59
2023-03-15T17:03:12.230Z,95619.53
2023-03-15T17:05:41.634Z,95619.16
2023-03-15T17:08:13.844Z,95619.16
2023-03-15T17:10:43.284Z,95617.59
2023-03-15T17:13:14.730Z,95616.53
2023-03-15T17:15:42.425Z,95614.38
2023-03-15T17:18:17.237Z,95619.34
2023-03-15T17:20:45.229Z,95619.97
2023-03-15T17:23:12.411Z,95617.38
2023-03-15T17:25:40.249Z,95625.94
2023-03-15T17:28:09.031Z,95635.63
2023-03-15T17:30:37.872Z,95630.63
2023-03-15T17:33:07.106Z,95635.50
2023-03-15T17:35:37.706Z,95633.69
2023-03-15T17:38:13.097Z,95642.78
2023-03-15T17:40:40.877Z,95646.41
2023-03-15T17:43:14.909Z,95644.81
2023-03-15T17:45:43.365Z,95645.44
2023-03-15T17:48:10.956Z,95651.69
2023-03-15T17:50:38.585Z,95646.44
2023-03-15T17:53:11.722Z,95645.84
2023-03-15T17:55:39.107Z,95650.94
2023-03-15T17:58:16.495Z,95655.97
2023-03-15T18:00:43.912Z,95647.09
2023-03-15T18:03:15.150Z,95658.59
2023-03-15T18:05:42.465Z,95654.00
2023-03-15T18:08:11.631Z,95663.28
2023-03-15T18:10:41.839Z,95662.31
2023-03-15T18:13:15.246Z,95657.06
2023-03-15T18:15:42.553Z,95654.81
2023-03-15T18:18:10.155Z,95652.81
2023-03-15T18:20:37.887Z,95655.84
2023-03-15T18:23:05.428Z,95649.81
2023-03-15T18:25:34.877Z,95649.22
2023-03-15T18:28:02.447Z,95652.66
2023-03-15T18:30:31.626Z,95655.47
2023-03-15T18:32:58.931Z,95659.91
2023-03-15T18:35:29.763Z,95653.88
2023-03-15T18:37:58.002Z,95649.22
2023-03-15T18:40:27.759Z,95650.63
2023-03-15T18:42:55.784Z,95637.06
2023-03-15T18:45:26.183Z,95635.03
2023-03-15T18:47:54.958Z,95633.84
2023-03-15T18:50:22.622Z,95633.84
2023-03-15T18:52:50.145Z,95631.22
2023-03-15T18:55:19.708Z,95640.88
2023-03-15T18:57:46.892Z,95636.03
2023-03-15T19:00:18.163Z,95641.25
2023-03-15T19:02:46.945Z,95634.81
2023-03-15T19:05:17.222Z,95631.97
2023-03-15T19:07:47.269Z,95634.44
2023-03-15T19:10:18.197Z,95638.84
2023-03-15T19:12:46.732Z,95640.41
2023-03-15T19:15:16.188Z,95630.38
2023-03-15T19:17:43.964Z,95640.84
2023-03-15T19:20:14.309Z,95647.25
2023-03-15T19:22:43.421Z,95658.13
2023-03-15T19:25:11.844Z,95652.34
2023-03-15T19:27:39.084Z,95648.06
2023-03-15T19:30:09.136Z,95653.50
2023-03-15T19:32:36.621Z,95650.28
2023-03-15T19:35:04.665Z,95644.03
2023-03-15T19:37:31.771Z,95641.63
2023-03-15T19:40:00.425Z,95638.38
2023-03-15T19:42:27.788Z,95639.13
2023-03-15T19:44:54.965Z,95640.16
2023-03-15T19:47:22.174Z,95647.59
2023-03-15T19:49:49.470Z,95644.97
2023-03-15T19:52:16.678Z,95643.38
2023-03-15T19:54:43.812Z,95642.75
2023-03-15T19:57:12.985Z,95651.25
2023-03-15T19:59:40.267Z,95643.38
2023-03-15T20:02:08.087Z,95647.63
2023-03-15T20:04:35.983Z,95649.66
2023-03-15T20:07:03.581Z,95647.16
2023-03-15T20:09:30.920Z,95642.09
2023-03-15T20:11:58.245Z,95645.97
2023-03-15T20:14:27.045Z,95644.75
2023-03-15T20:16:55.046Z,95649.75
2023-03-15T20:19:31.749Z,95649.78
2023-03-15T20:22:00.013Z,95650.72
2023-03-15T20:24:27.807Z,95656.00
2023-03-15T20:26:55.948Z,95657.63
2023-03-15T20:29:23.524Z,95666.09
2023-03-15T20:31:53.051Z,95658.25
2023-03-15T20:34:21.548Z,95657.22
2023-03-15T20:36:49.734Z,95664.88
2023-03-15T20:39:17.189Z,95659.22
2023-03-15T20:41:44.816Z,95655.38
2023-03-15T20:44:13.449Z,95651.34
2023-03-15T20:46:41.725Z,95657.78
2023-03-15T20:49:10.987Z,95655.94
2023-03-15T20:51:39.049Z,95651.69
2023-03-15T20:54:07.348Z,95648.72
2023-03-15T20:56:34.755Z,95646.88
2023-03-15T20:59:02.186Z,95649.81
2023-03-15T21:01:29.498Z,95646.59
2023-03-15T21:03:56.785Z,95651.69
2023-03-15T21:06:26.108Z,95658.44
2023-03-15T21:08:54.802Z,95654.66
2023-03-15T21:11:22.325Z,95643.75
2023-03-15T21:13:50.325Z,95654.22
2023-03-15T21:16:17.729Z,95657.03
2023-03-15T21:18:46.143Z,95645.88
2023-03-15T21:21:14.965Z,95654.53
2023-03-15T21:23:44.764Z,95648.16
2023-03-15T21:26:14.701Z,95650.88
2023-03-15T21:28:43.514Z,95659.47
2023-03-15T21:31:11.667Z,95666.78
2023-03-15T21:33:39.596Z,95668.19
2023-03-15T21:36:07.766Z,95662.69
2023-03-15T21:38:35.370Z,95658.00
2023-03-15T21:41:09.880Z,95662.06
2023-03-15T21:43:38.697Z,95657.41
2023-03-15T21:46:08.537Z,95655.34
2023-03-15T21:48:37.087Z,95663.56
2023-03-15T21:51:06.076Z,95655.69
2023-03-15T21:53:34.327Z,95662.16
2023-03-15T21:56:03.350Z,95664.50
2023-03-15T21:58:32.674Z,95666.88
2023-03-15T22:01:01.967Z,95668.72
2023-03-15T22:03:29.442Z,95666.09
2023-03-15T22:05:57.320Z,95660.66
2023-03-15T22:08:25.435Z,95659.84
2023-03-15T22:10:54.314Z,95663.25
2023-03-15T22:13:22.140Z,95664.00
2023-03-15T22:15:51.197Z,95667.16
2023-03-15T22:18:19.303Z,95657.94
2023-03-15T22:20:47.570Z,95658.75
2023-03-15T22:23:14.876Z,95648.38
2023-03-15T22:25:42.143Z,95652.44
2023-03-15T22:28:09.387Z,95649.75
2023-03-15T22:30:36.572Z,95647.38
2023-03-15T22:33:05.477Z,95649.50
2023-03-15T22:35:32.812Z,95649.03
2023-03-15T22:38:00.537Z,95644.44
2023-03-15T22:40:28.657Z,95647.69
2023-03-15T22:42:55.858Z,95647.22
2023-03-15T22:45:23.038Z,95648.44
2023-03-15T22:47:50.281Z,95644.84
2023-03-15T22:50:19.199Z,95646.50
2023-03-15T22:52:46.368Z,95648.88
2023-03-15T22:55:14.640Z,95654.53
2023-03-15T22:57:41.923Z,95663.34
2023-03-15T23:00:13.139Z,95665.50
2023-03-15T23:02:41.121Z,95658.41
2023-03-15T23:05:09.803Z,95667.34
2023-03-15T23:07:39.144Z,95672.31
2023-03-15T23:10:08.327Z,95664.47
2023-03-15T23:12:36.802Z,95672.94
2023-03-15T23:15:04.882Z,95674.25
2023-03-15T23:17:32.185Z,95670.41
2023-03-15T23:19:59.368Z,95675.34
2023-03-15T23:22:26.491Z,95671.56
2023-03-15T23:24:55.106Z,95673.47
2023-03-15T23:27:22.224Z,95673.66
2023-03-15T23:29:54.430Z,95677.09
2023-03-15T23:32:23.508Z,95673.78
2023-03-15T23:34:51.481Z,95687.16
2023-03-15T23:37:18.587Z,95684.63
2023-03-15T23:39:46.122Z,95685.06
2023-03-15T23:42:14.998Z,95684.44
2023-03-15T23:44:42.150Z,95679.41
2023-03-15T23:47:09.672Z,95685.44
2023-03-15T23:49:36.966Z,95682.84
2023-03-15T23:52:04.348Z,95679.53
2023-03-15T23:54:31.974Z,95674.50
2023-03-15T23:56:59.107Z,95675.56
2023-03-15T23:59:27.744Z,95678.91
